sensor_id;sensor_type;location;lat;lon;timestamp;pressure;altitude;pressure_sealevel;temperature;humidity
55032;BME280;40928;51.076;7.950;2023-04-07T00:01:03;96836.34;;;4.90;100.00
55032;BME280;40928;51.076;7.950;2023-04-07T00:03:29;96836.75;;;4.93;100.00
55032;BME280;40928;51.076;7.950;2023-04-07T00:05:54;96833.69;;;4.96;100.00
55032;BME280;40928;51.076;7.950;2023-04-07T00:08:20;96840.41;;;4.99;100.00
55032;BME280;40928;51.076;7.950;2023-04-07T00:10:46;96833.06;;;5.01;100.00
55032;BME280;40928;51.076;7.950;2023-04-07T00:13:12;96836.13;;;4.98;100.00
55032;BME280;40928;51.076;7.950;2023-04-07T00:15:37;96826.94;;;5.00;100.00
55032;BME280;40928;51.076;7.950;2023-04-07T00:18:03;96825.31;;;4.99;100.00
55032;BME280;40928;51.076;7.950;2023-04-07T00:20:29;96823.69;;;4.98;100.00
55032;BME280;40928;51.076;7.950;2023-04-07T00:22:54;96824.31;;;4.94;100.00
55032;BME280;40928;51.076;7.950;2023-04-07T00:25:20;96820.47;;;4.96;100.00
55032;BME280;40928;51.076;7.950;2023-04-07T00:27:46;96825.13;;;5.01;100.00
55032;BME280;40928;51.076;7.950;2023-04-07T00:30:11;96826.78;;;4.95;100.00
55032;BME280;40928;51.076;7.950;2023-04-07T00:32:37;96820.66;;;4.95;100.00
55032;BME280;40928;51.076;7.950;2023-04-07T00:35:03;96818.41;;;4.98;100.00
55032;BME280;40928;51.076;7.950;2023-04-07T00:37:29;96817.22;;;4.94;100.00
55032;BME280;40928;51.076;7.950;2023-04-07T00:39:55;96814.94;;;4.98;100.00
55032;BME280;40928;51.076;7.950;2023-04-07T00:42:22;96810.69;;;4.97;100.00
55032;BME280;40928;51.076;7.950;2023-04-07T00:44:47;96814.56;;;4.94;100.00
55032;BME280;40928;51.076;7.950;2023-04-07T00:47:14;96813.53;;;4.95;100.00
55032;BME280;40928;51.076;7.950;2023-04-07T00:49:40;96810.69;;;4.97;100.00
55032;BME280;40928;51.076;7.950;2023-04-07T00:52:06;96811.50;;;4.91;100.00
55032;BME280;40928;51.076;7.950;2023-04-07T00:54:33;96805.41;;;4.90;100.00
55032;BME280;40928;51.076;7.950;2023-04-07T00:56:58;96803.16;;;4.87;100.00
55032;BME280;40928;51.076;7.950;2023-04-07T00:59:24;96804.19;;;4.86;100.00
55032;BME280;40928;51.076;7.950;2023-04-07T01:02:10;96792.81;;;4.79;100.00
55032;BME280;40928;51.076;7.950;2023-04-07T01:04:42;96797.28;;;4.85;100.00
55032;BME280;40928;51.076;7.950;2023-04-07T01:07:15;96800.34;;;4.88;100.00
55032;BME280;40928;51.076;7.950;2023-04-07T01:09:57;96789.53;;;4.90;100.00
55032;BME280;40928;51.076;7.950;2023-04-07T01:13:04;96785.06;;;4.84;100.00
55032;BME280;40928;51.076;7.950;2023-04-07T01:15:33;96796.28;;;4.79;100.00
55032;BME280;40928;51.076;7.950;2023-04-07T01:18:08;96780.63;;;4.78;100.00
55032;BME280;40928;51.076;7.950;2023-04-07T01:20:35;96789.94;;;4.87;100.00
55032;BME280;40928;51.076;7.950;2023-04-07T01:23:04;96786.91;;;4.83;100.00
55032;BME280;40928;51.076;7.950;2023-04-07T01:25:44;96780.41;;;4.79;100.00
55032;BME280;40928;51.076;7.950;2023-04-07T01:31:04;96784.47;;;4.82;100.00
55032;BME280;40928;51.076;7.950;2023-04-07T01:33:33;96783.44;;;4.83;100.00
55032;BME280;40928;51.076;7.950;2023-04-07T01:36:00;96778.13;;;4.83;100.00
55032;BME280;40928;51.076;7.950;2023-04-07T01:38:28;96783.44;;;4.83;100.00
55032;BME280;40928;51.076;7.950;2023-04-07T01:40:56;96775.09;;;4.86;100.00
55032;BME280;40928;51.076;7.950;2023-04-07T01:43:24;96771.00;;;4.90;100.00
55032;BME280;40928;51.076;7.950;2023-04-07T01:45:51;96772.63;;;4.91;100.00
55032;BME280;40928;51.076;7.950;2023-04-07T01:48:18;96767.53;;;4.96;100.00
55032;BME280;40928;51.076;7.950;2023-04-07T01:50:48;96778.53;;;4.93;100.00
55032;BME280;40928;51.076;7.950;2023-04-07T01:53:14;96773.44;;;4.92;100.00
55032;BME280;40928;51.076;7.950;2023-04-07T01:55:41;96771.19;;;4.95;100.00
55032;BME280;40928;51.076;7.950;2023-04-07T01:58:08;96770.38;;;4.95;100.00
55032;BME280;40928;51.076;7.950;2023-04-07T02:00:36;96769.56;;;4.94;100.00
55032;BME280;40928;51.076;7.950;2023-04-07T02:03:12;96765.47;;;4.98;100.00
55032;BME280;40928;51.076;7.950;2023-04-07T02:05:47;96766.31;;;4.92;100.00
55032;BME280;40928;51.076;7.950;2023-04-07T02:08:16;96769.56;;;4.94;100.00
55032;BME280;40928;51.076;7.950;2023-04-07T02:10:46;96771.19;;;4.95;100.00
55032;BME280;40928;51.076;7.950;2023-04-07T02:13:15;96764.09;;;4.89;100.00
55032;BME280;40928;51.076;7.950;2023-04-07T02:15:43;96765.91;;;4.95;100.00
55032;BME280;40928;51.076;7.950;2023-04-07T02:18:12;96766.53;;;4.97;100.00
55032;BME280;40928;51.076;7.950;2023-04-07T02:20:39;96767.09;;;4.99;100.00
55032;BME280;40928;51.076;7.950;2023-04-07T02:23:08;96769.56;;;5.01;100.00
55032;BME280;40928;51.076;7.950;2023-04-07T02:25:35;96760.19;;;4.98;100.00
55032;BME280;40928;51.076;7.950;2023-04-07T02:28:04;96766.69;;;5.02;100.00
55032;BME280;40928;51.076;7.950;2023-04-07T02:30:32;96762.00;;;5.05;100.00
55032;BME280;40928;51.076;7.950;2023-04-07T02:32:58;96757.53;;;5.05;100.00
55032;BME280;40928;51.076;7.950;2023-04-07T02:35:23;96755.69;;;5.06;100.00
55032;BME280;40928;51.076;7.950;2023-04-07T02:37:49;96758.53;;;5.11;100.00
55032;BME280;40928;51.076;7.950;2023-04-07T02:40:15;96751.78;;;5.08;100.00
55032;BME280;40928;51.076;7.950;2023-04-07T02:42:41;96757.53;;;5.05;100.00
55032;BME280;40928;51.076;7.950;2023-04-07T02:45:08;96755.47;;;5.07;100.00
55032;BME280;40928;51.076;7.950;2023-04-07T02:47:36;96758.09;;;5.07;100.00
55032;BME280;40928;51.076;7.950;2023-04-07T02:50:02;96750.41;;;5.06;100.00
55032;BME280;40928;51.076;7.950;2023-04-07T02:52:31;96759.31;;;5.11;100.00
55032;BME280;40928;51.076;7.950;2023-04-07T02:54:57;96758.72;;;5.09;100.00
55032;BME280;40928;51.076;7.950;2023-04-07T02:57:25;96759.75;;;5.01;100.00
55032;BME280;40928;51.076;7.950;2023-04-07T02:59:54;96753.88;;;4.99;100.00
55032;BME280;40928;51.076;7.950;2023-04-07T03:02:24;96758.13;;;5.00;100.00
55032;BME280;40928;51.076;7.950;2023-04-07T03:04:50;96755.31;;;5.02;100.00
55032;BME280;40928;51.076;7.950;2023-04-07T03:07:17;96755.28;;;5.09;100.00
55032;BME280;40928;51.076;7.950;2023-04-07T03:09:43;96756.47;;;5.06;100.00
55032;BME280;40928;51.076;7.950;2023-04-07T03:12:10;96758.53;;;5.11;100.00
55032;BME280;40928;51.076;7.950;2023-04-07T03:14:36;96760.16;;;5.12;100.00
55032;BME280;40928;51.076;7.950;2023-04-07T03:17:02;96765.84;;;5.15;100.00
55032;BME280;40928;51.076;7.950;2023-04-07T03:19:29;96752.38;;;5.17;100.00
55032;BME280;40928;51.076;7.950;2023-04-07T03:21:55;96750.56;;;5.17;100.00
55032;BME280;40928;51.076;7.950;2023-04-07T03:24:20;96758.66;;;5.23;100.00
55032;BME280;40928;51.076;7.950;2023-04-07T03:26:46;96752.16;;;5.25;100.00
55032;BME280;40928;51.076;7.950;2023-04-07T03:29:21;96753.97;;;5.25;100.00
55032;BME280;40928;51.076;7.950;2023-04-07T03:31:46;96751.13;;;5.26;100.00
55032;BME280;40928;51.076;7.950;2023-04-07T03:34:15;96754.38;;;5.28;100.00
55032;BME280;40928;51.076;7.950;2023-04-07T03:36:41;96753.34;;;5.29;100.00
55032;BME280;40928;51.076;7.950;2023-04-07T03:39:07;96749.88;;;5.29;100.00
55032;BME280;40928;51.076;7.950;2023-04-07T03:41:32;96747.00;;;5.30;100.00
55032;BME280;40928;51.076;7.950;2023-04-07T03:43:58;96753.34;;;5.29;100.00
55032;BME280;40928;51.076;7.950;2023-04-07T03:46:24;96750.97;;;5.14;100.00
55032;BME280;40928;51.076;7.950;2023-04-07T03:48:52;96754.81;;;5.18;100.00
55032;BME280;40928;51.076;7.950;2023-04-07T03:51:20;96752.19;;;5.18;100.00
55032;BME280;40928;51.076;7.950;2023-04-07T03:53:48;96751.97;;;5.20;100.00
55032;BME280;40928;51.076;7.950;2023-04-07T03:56:26;96756.63;;;5.25;100.00
55032;BME280;40928;51.076;7.950;2023-04-07T03:58:51;96755.81;;;5.24;100.00
55032;BME280;40928;51.076;7.950;2023-04-07T04:01:25;96750.28;;;5.26;100.00
55032;BME280;40928;51.076;7.950;2023-04-07T04:03:52;96753.16;;;5.24;100.00
55032;BME280;40928;51.076;7.950;2023-04-07T04:06:26;96751.91;;;5.27;100.00
55032;BME280;40928;51.076;7.950;2023-04-07T04:08:57;96760.47;;;5.29;100.00
55032;BME280;40928;51.076;7.950;2023-04-07T04:11:24;96758.84;;;5.28;100.00
55032;BME280;40928;51.076;7.950;2023-04-07T04:13:57;96764.78;;;5.23;100.00
55032;BME280;40928;51.076;7.950;2023-04-07T04:16:23;96763.34;;;5.27;100.00
55032;BME280;40928;51.076;7.950;2023-04-07T04:18:51;96764.56;;;5.25;100.00
55032;BME280;40928;51.076;7.950;2023-04-07T04:21:17;96756.44;;;5.20;100.00
55032;BME280;40928;51.076;7.950;2023-04-07T04:23:44;96769.13;;;5.04;100.00
55032;BME280;40928;51.076;7.950;2023-04-07T04:26:10;96768.31;;;5.03;100.00
55032;BME280;40928;51.076;7.950;2023-04-07T04:28:38;96765.31;;;4.93;100.00
55032;BME280;40928;51.076;7.950;2023-04-07T04:31:06;96769.59;;;4.87;100.00
55032;BME280;40928;51.076;7.950;2023-04-07T04:33:37;96763.69;;;4.85;100.00
55032;BME280;40928;51.076;7.950;2023-04-07T04:36:03;96764.50;;;4.86;100.00
55032;BME280;40928;51.076;7.950;2023-04-07T04:38:29;96768.38;;;4.90;100.00
55032;BME280;40928;51.076;7.950;2023-04-07T04:41:12;96765.69;;;4.97;100.00
55032;BME280;40928;51.076;7.950;2023-04-07T04:43:38;96761.03;;;4.92;100.00
55032;BME280;40928;51.076;7.950;2023-04-07T04:46:04;96770.00;;;4.91;100.00
55032;BME280;40928;51.076;7.950;2023-04-07T04:48:35;96763.69;;;4.92;100.00
55032;BME280;40928;51.076;7.950;2023-04-07T04:51:03;96766.31;;;4.99;100.00
55032;BME280;40928;51.076;7.950;2023-04-07T04:53:30;96770.56;;;5.00;100.00
55032;BME280;40928;51.076;7.950;2023-04-07T04:55:59;96774.22;;;5.06;100.00
55032;BME280;40928;51.076;7.950;2023-04-07T04:58:45;96768.69;;;5.07;100.00
55032;BME280;40928;51.076;7.950;2023-04-07T05:01:15;96773.19;;;5.07;100.00
55032;BME280;40928;51.076;7.950;2023-04-07T05:03:50;96767.91;;;5.07;100.00
55032;BME280;40928;51.076;7.950;2023-04-07T05:06:21;96778.88;;;5.10;100.00
55032;BME280;40928;51.076;7.950;2023-04-07T05:08:49;96767.25;;;5.11;100.00
55032;BME280;40928;51.076;7.950;2023-04-07T05:11:18;96786.59;;;5.18;100.00
55032;BME280;40928;51.076;7.950;2023-04-07T05:13:48;96780.13;;;5.08;100.00
55032;BME280;40928;51.076;7.950;2023-04-07T05:16:14;96773.81;;;5.09;100.00
55032;BME280;40928;51.076;7.950;2023-04-07T05:18:40;96776.03;;;5.12;100.00
55032;BME280;40928;51.076;7.950;2023-04-07T05:21:06;96773.38;;;5.12;100.00
55032;BME280;40928;51.076;7.950;2023-04-07T05:23:35;96775.00;;;5.13;100.00
55032;BME280;40928;51.076;7.950;2023-04-07T05:26:02;96787.16;;;5.27;100.00
55032;BME280;40928;51.076;7.950;2023-04-07T05:28:29;96786.78;;;5.17;100.00
55032;BME280;40928;51.076;7.950;2023-04-07T05:30:58;96781.91;;;5.14;100.00
55032;BME280;40928;51.076;7.950;2023-04-07T05:33:28;96784.78;;;5.12;100.00
55032;BME280;40928;51.076;7.950;2023-04-07T05:35:55;96790.88;;;5.20;100.00
55032;BME280;40928;51.076;7.950;2023-04-07T05:38:20;96784.31;;;5.22;100.00
55032;BME280;40928;51.076;7.950;2023-04-07T05:40:47;96786.56;;;5.25;100.00
55032;BME280;40928;51.076;7.950;2023-04-07T05:43:20;96782.66;;;5.28;100.00
55032;BME280;40928;51.076;7.950;2023-04-07T05:45:46;96794.09;;;5.28;100.00
55032;BME280;40928;51.076;7.950;2023-04-07T05:48:12;96789.38;;;5.30;100.00
55032;BME280;40928;51.076;7.950;2023-04-07T05:50:43;96786.91;;;5.36;100.00
55032;BME280;40928;51.076;7.950;2023-04-07T05:53:13;96795.88;;;5.34;100.00
55032;BME280;40928;51.076;7.950;2023-04-07T05:55:42;96792.47;;;5.27;100.00
55032;BME280;40928;51.076;7.950;2023-04-07T05:58:12;96800.03;;;5.17;100.00
55032;BME280;40928;51.076;7.950;2023-04-07T06:00:40;96797.34;;;5.24;100.00
55032;BME280;40928;51.076;7.950;2023-04-07T06:03:11;96797.53;;;5.29;100.00
55032;BME280;40928;51.076;7.950;2023-04-07T06:05:50;96804.22;;;5.31;100.00
55032;BME280;40928;51.076;7.950;2023-04-07T06:08:19;96803.81;;;5.34;100.00
55032;BME280;40928;51.076;7.950;2023-04-07T06:10:44;96803.41;;;5.38;100.00
55032;BME280;40928;51.076;7.950;2023-04-07T06:13:11;96811.72;;;5.41;100.00
55032;BME280;40928;51.076;7.950;2023-04-07T06:15:36;96815.00;;;5.37;100.00
55032;BME280;40928;51.076;7.950;2023-04-07T06:18:02;96815.00;;;5.37;100.00
55032;BME280;40928;51.076;7.950;2023-04-07T06:20:29;96813.38;;;5.36;100.00
55032;BME280;40928;51.076;7.950;2023-04-07T06:22:56;96815.63;;;5.39;100.00
55032;BME280;40928;51.076;7.950;2023-04-07T06:25:21;96817.00;;;5.48;100.00
55032;BME280;40928;51.076;7.950;2023-04-07T06:27:47;96812.56;;;5.42;100.00
55032;BME280;40928;51.076;7.950;2023-04-07T06:30:13;96814.94;;;5.50;100.00
55032;BME280;40928;51.076;7.950;2023-04-07T06:32:39;96808.81;;;5.56;100.00
55032;BME280;40928;51.076;7.950;2023-04-07T06:35:05;96808.41;;;5.59;100.00
55032;BME280;40928;51.076;7.950;2023-04-07T06:37:31;96814.88;;;5.63;100.00
55032;BME280;40928;51.076;7.950;2023-04-07T06:39:59;96815.06;;;5.69;100.00
55032;BME280;40928;51.076;7.950;2023-04-07T06:42:25;96812.84;;;5.66;100.00
55032;BME280;40928;51.076;7.950;2023-04-07T06:45:03;96819.34;;;5.70;100.00
55032;BME280;40928;51.076;7.950;2023-04-07T06:47:29;96814.66;;;5.72;100.00
55032;BME280;40928;51.076;7.950;2023-04-07T06:49:55;96825.19;;;5.78;100.00
55032;BME280;40928;51.076;7.950;2023-04-07T06:52:21;96824.38;;;5.78;100.00
55032;BME280;40928;51.076;7.950;2023-04-07T06:54:46;96822.59;;;5.72;100.00
55032;BME280;40928;51.076;7.950;2023-04-07T06:57:13;96824.22;;;5.73;100.00
55032;BME280;40928;51.076;7.950;2023-04-07T06:59:39;96825.84;;;5.74;100.00
55032;BME280;40928;51.076;7.950;2023-04-07T07:02:04;96836.00;;;5.77;100.00
55032;BME280;40928;51.076;7.950;2023-04-07T07:04:32;96828.91;;;5.71;100.00
55032;BME280;40928;51.076;7.950;2023-04-07T07:06:58;96824.63;;;5.70;100.00
55032;BME280;40928;51.076;7.950;2023-04-07T07:09:24;96835.00;;;5.71;100.00
55032;BME280;40928;51.076;7.950;2023-04-07T07:11:51;96835.63;;;5.73;100.00
55032;BME280;40928;51.076;7.950;2023-04-07T07:14:17;96837.84;;;5.76;100.00
55032;BME280;40928;51.076;7.950;2023-04-07T07:16:43;96830.88;;;5.82;100.00
55032;BME280;40928;51.076;7.950;2023-04-07T07:19:08;96831.66;;;5.89;100.00
55032;BME280;40928;51.076;7.950;2023-04-07T07:33:01;96851.09;;;6.15;100.00
55032;BME280;40928;51.076;7.950;2023-04-07T07:35:27;96859.66;;;6.17;100.00
55032;BME280;40928;51.076;7.950;2023-04-07T07:37:52;96863.72;;;6.20;100.00
55032;BME280;40928;51.076;7.950;2023-04-07T07:40:18;96863.94;;;6.18;100.00
55032;BME280;40928;51.076;7.950;2023-04-07T07:42:45;96871.47;;;6.21;100.00
55032;BME280;40928;51.076;7.950;2023-04-07T07:45:10;96869.19;;;6.25;100.00
55032;BME280;40928;51.076;7.950;2023-04-07T07:47:38;96867.94;;;6.28;100.00
55032;BME280;40928;51.076;7.950;2023-04-07T07:50:04;96870.16;;;6.31;100.00
55032;BME280;40928;51.076;7.950;2023-04-07T07:52:30;96867.09;;;6.34;100.00
55032;BME280;40928;51.076;7.950;2023-04-07T07:54:56;96864.59;;;6.39;100.00
55032;BME280;40928;51.076;7.950;2023-04-07T07:57:21;96876.75;;;6.47;100.00
55032;BME280;40928;51.076;7.950;2023-04-07T07:59:47;96875.53;;;6.49;100.00
55032;BME280;40928;51.076;7.950;2023-04-07T08:02:12;96882.84;;;6.54;100.00
55032;BME280;40928;51.076;7.950;2023-04-07T08:04:38;96882.19;;;6.59;100.00
55032;BME280;40928;51.076;7.950;2023-04-07T08:07:04;96885.22;;;6.62;100.00
55032;BME280;40928;51.076;7.950;2023-04-07T08:09:32;96890.91;;;6.66;100.00
55032;BME280;40928;51.076;7.950;2023-04-07T08:11:58;96891.06;;;6.71;100.00
55032;BME280;40928;51.076;7.950;2023-04-07T08:14:24;96892.50;;;6.74;100.00
55032;BME280;40928;51.076;7.950;2023-04-07T08:16:50;96896.97;;;6.73;100.00
55032;BME280;40928;51.076;7.950;2023-04-07T08:19:15;96899.56;;;6.54;100.00
55032;BME280;40928;51.076;7.950;2023-04-07T08:21:41;96895.75;;;6.50;100.00
55032;BME280;40928;51.076;7.950;2023-04-07T08:24:08;96900.75;;;6.59;100.00
55032;BME280;40928;51.076;7.950;2023-04-07T08:26:33;96903.59;;;6.64;100.00
55032;BME280;40928;51.076;7.950;2023-04-07T08:28:59;96899.97;;;6.58;100.00
55032;BME280;40928;51.076;7.950;2023-04-07T08:31:25;96902.22;;;6.54;100.00
55032;BME280;40928;51.076;7.950;2023-04-07T08:33:51;96904.44;;;6.58;100.00
55032;BME280;40928;51.076;7.950;2023-04-07T08:36:23;96902.81;;;6.57;100.00
55032;BME280;40928;51.076;7.950;2023-04-07T08:38:49;96907.59;;;6.73;100.00
55032;BME280;40928;51.076;7.950;2023-04-07T08:41:26;96913.81;;;6.60;100.00
55032;BME280;40928;51.076;7.950;2023-04-07T08:43:52;96912.63;;;6.56;100.00
55032;BME280;40928;51.076;7.950;2023-04-07T08:46:21;96916.91;;;6.57;100.00
55032;BME280;40928;51.076;7.950;2023-04-07T08:48:50;96917.72;;;6.58;100.00
55032;BME280;40928;51.076;7.950;2023-04-07T08:51:26;96903.75;;;6.44;100.00
55032;BME280;40928;51.076;7.950;2023-04-07T08:53:53;96910.69;;;6.45;100.00
55032;BME280;40928;51.076;7.950;2023-04-07T08:56:23;96911.22;;;6.53;100.00
55032;BME280;40928;51.076;7.950;2023-04-07T08:58:49;96915.47;;;6.61;100.00
55032;BME280;40928;51.076;7.950;2023-04-07T09:01:15;96918.25;;;6.66;100.00
55032;BME280;40928;51.076;7.950;2023-04-07T09:03:43;96920.25;;;6.71;100.00
55032;BME280;40928;51.076;7.950;2023-04-07T09:06:10;96916.97;;;6.76;100.00
55032;BME280;40928;51.076;7.950;2023-04-07T09:08:36;96920.47;;;6.69;100.00
55032;BME280;40928;51.076;7.950;2023-04-07T09:11:02;96922.47;;;6.74;100.00
55032;BME280;40928;51.076;7.950;2023-04-07T09:13:28;96924.72;;;6.77;100.00
55032;BME280;40928;51.076;7.950;2023-04-07T09:15:56;96920.59;;;6.81;100.00
55032;BME280;40928;51.076;7.950;2023-04-07T09:18:22;96937.13;;;6.83;100.00
55032;BME280;40928;51.076;7.950;2023-04-07T09:23:33;96931.97;;;6.89;100.00
55032;BME280;40928;51.076;7.950;2023-04-07T09:26:17;96935.56;;;6.94;100.00
55032;BME280;40928;51.076;7.950;2023-04-07T09:28:48;96937.88;;;6.91;100.00
55032;BME280;40928;51.076;7.950;2023-04-07T09:31:17;96941.72;;;6.95;100.00
55032;BME280;40928;51.076;7.950;2023-04-07T09:33:46;96943.78;;;6.93;100.00
55032;BME280;40928;51.076;7.950;2023-04-07T09:36:12;96943.94;;;6.98;100.00
55032;BME280;40928;51.076;7.950;2023-04-07T09:38:39;96941.28;;;6.98;100.00
55032;BME280;40928;51.076;7.950;2023-04-07T09:41:13;96949.25;;;6.98;100.00
55032;BME280;40928;51.076;7.950;2023-04-07T09:43:41;96942.31;;;6.97;100.00
55032;BME280;40928;51.076;7.950;2023-04-07T09:46:18;96944.38;;;6.95;100.00
55032;BME280;40928;51.076;7.950;2023-04-07T09:48:45;96942.09;;;6.98;100.00
55032;BME280;40928;51.076;7.950;2023-04-07T09:51:13;96940.03;;;7.00;100.00
55032;BME280;40928;51.076;7.950;2023-04-07T09:53:46;96954.09;;;7.01;100.00
55032;BME280;40928;51.076;7.950;2023-04-07T09:56:14;96955.84;;;6.89;100.00
55032;BME280;40928;51.076;7.950;2023-04-07T09:58:41;96955.09;;;6.81;100.00
55032;BME280;40928;51.076;7.950;2023-04-07T10:01:11;96944.31;;;6.76;100.00
55032;BME280;40928;51.076;7.950;2023-04-07T10:03:37;96950.41;;;6.83;100.00
55032;BME280;40928;51.076;7.950;2023-04-07T10:06:04;96954.75;;;6.96;100.00
55032;BME280;40928;51.076;7.950;2023-04-07T10:08:39;96954.28;;;7.06;100.00
55032;BME280;40928;51.076;7.950;2023-04-07T10:11:06;96957.25;;;7.16;100.00
55032;BME280;40928;51.076;7.950;2023-04-07T10:13:34;96950.91;;;7.18;100.00
55032;BME280;40928;51.076;7.950;2023-04-07T10:16:03;96953.50;;;7.24;100.00
55032;BME280;40928;51.076;7.950;2023-04-07T10:18:31;96952.03;;;7.28;100.00
55032;BME280;40928;51.076;7.950;2023-04-07T10:21:00;96954.25;;;7.31;100.00
55032;BME280;40928;51.076;7.950;2023-04-07T10:23:46;96962.72;;;7.22;100.00
55032;BME280;40928;51.076;7.950;2023-04-07T10:26:25;96965.97;;;7.24;100.00
55032;BME280;40928;51.076;7.950;2023-04-07T10:28:58;96961.09;;;7.21;100.00
55032;BME280;40928;51.076;7.950;2023-04-07T10:31:25;96969.44;;;7.24;100.00
55032;BME280;40928;51.076;7.950;2023-04-07T10:33:52;96969.00;;;7.27;100.00
55032;BME280;40928;51.076;7.950;2023-04-07T10:36:19;96970.78;;;7.34;100.00
55032;BME280;40928;51.076;7.950;2023-04-07T10:41:40;96981.34;;;7.40;100.00
55032;BME280;40928;51.076;7.950;2023-04-07T10:44:17;96974.78;;;7.43;100.00
55032;BME280;40928;51.076;7.950;2023-04-07T10:47:05;96984.16;;;7.45;100.00
55032;BME280;40928;51.076;7.950;2023-04-07T10:49:34;96979.88;;;7.44;100.00
55032;BME280;40928;51.076;7.950;2023-04-07T10:54:40;96981.28;;;7.47;100.00
55032;BME280;40928;51.076;7.950;2023-04-07T10:57:12;96988.22;;;7.48;100.00
55032;BME280;40928;51.076;7.950;2023-04-07T11:02:39;96990.22;;;7.53;100.00
55032;BME280;40928;51.076;7.950;2023-04-07T11:05:05;96988.94;;;7.55;100.00
55032;BME280;40928;51.076;7.950;2023-04-07T11:07:50;96992.00;;;7.59;100.00
55032;BME280;40928;51.076;7.950;2023-04-07T11:10:16;96996.28;;;7.60;100.00
55032;BME280;40928;51.076;7.950;2023-04-07T11:12:43;96996.72;;;7.57;100.00
55032;BME280;40928;51.076;7.950;2023-04-07T11:15:16;97008.16;;;7.57;100.00
55032;BME280;40928;51.076;7.950;2023-04-07T11:17:42;96994.66;;;7.59;100.00
55032;BME280;40928;51.076;7.950;2023-04-07T11:20:08;97002.63;;;7.59;100.00
55032;BME280;40928;51.076;7.950;2023-04-07T11:22:34;97002.63;;;7.59;100.00
55032;BME280;40928;51.076;7.950;2023-04-07T11:25:01;97014.50;;;7.56;100.00
55032;BME280;40928;51.076;7.950;2023-04-07T11:27:28;97004.38;;;7.46;100.00
55032;BME280;40928;51.076;7.950;2023-04-07T11:29:55;97012.84;;;7.37;100.00
55032;BME280;40928;51.076;7.950;2023-04-07T11:32:22;97009.38;;;7.36;100.00
55032;BME280;40928;51.076;7.950;2023-04-07T11:34:54;97023.47;;;7.37;100.00
55032;BME280;40928;51.076;7.950;2023-04-07T11:37:22;97019.56;;;7.39;100.00
55032;BME280;40928;51.076;7.950;2023-04-07T11:39:56;97026.34;;;7.35;100.00
55032;BME280;40928;51.076;7.950;2023-04-07T11:42:38;97015.84;;;7.22;100.00
55032;BME280;40928;51.076;7.950;2023-04-07T11:45:15;97028.25;;;7.28;100.00
55032;BME280;40928;51.076;7.950;2023-04-07T11:47:40;97027.44;;;7.27;100.00
55032;BME280;40928;51.076;7.950;2023-04-07T11:50:07;97027.66;;;7.26;100.00
55032;BME280;40928;51.076;7.950;2023-04-07T11:52:46;97026.63;;;7.27;100.00
55032;BME280;40928;51.076;7.950;2023-04-07T11:55:19;97031.94;;;7.27;100.00
55032;BME280;40928;51.076;7.950;2023-04-07T11:57:49;97037.91;;;7.22;100.00
55032;BME280;40928;51.076;7.950;2023-04-07T12:00:16;97046.44;;;7.24;100.00
55032;BME280;40928;51.076;7.950;2023-04-07T12:02:42;97048.97;;;7.19;100.00
55032;BME280;40928;51.076;7.950;2023-04-07T12:05:08;97041.91;;;7.06;100.00
55032;BME280;40928;51.076;7.950;2023-04-07T12:07:38;97044.56;;;7.06;100.00
55032;BME280;40928;51.076;7.950;2023-04-07T12:10:21;97052.31;;;7.08;100.00
55032;BME280;40928;51.076;7.950;2023-04-07T12:12:47;97064.34;;;7.10;100.00
55032;BME280;40928;51.076;7.950;2023-04-07T12:15:13;97055.94;;;7.13;100.00
55032;BME280;40928;51.076;7.950;2023-04-07T12:17:44;97050.19;;;7.16;100.00
55032;BME280;40928;51.076;7.950;2023-04-07T12:20:11;97060.38;;;7.20;100.00
55032;BME280;40928;51.076;7.950;2023-04-07T12:22:36;97059.41;;;7.14;100.00
55032;BME280;40928;51.076;7.950;2023-04-07T12:25:02;97058.00;;;7.11;100.00
55032;BME280;40928;51.076;7.950;2023-04-07T12:27:27;97072.69;;;7.14;100.00
55032;BME280;40928;51.076;7.950;2023-04-07T12:29:53;97070.91;;;7.08;100.00
55032;BME280;40928;51.076;7.950;2023-04-07T12:32:18;97068.88;;;7.03;100.00
55032;BME280;40928;51.076;7.950;2023-04-07T12:34:44;97066.41;;;7.08;100.00
55032;BME280;40928;51.076;7.950;2023-04-07T12:37:09;97065.59;;;7.08;100.00
55032;BME280;40928;51.076;7.950;2023-04-07T12:39:35;97063.69;;;7.15;100.00
55032;BME280;40928;51.076;7.950;2023-04-07T12:42:00;97063.81;;;7.27;100.00
55032;BME280;40928;51.076;7.950;2023-04-07T12:44:26;97074.88;;;7.24;100.00
55032;BME280;40928;51.076;7.950;2023-04-07T12:46:51;97072.72;;;7.07;100.00
55032;BME280;40928;51.076;7.950;2023-04-07T12:49:17;97076.41;;;7.06;100.00
55032;BME280;40928;51.076;7.950;2023-04-07T12:51:43;97076.00;;;7.09;100.00
55032;BME280;40928;51.076;7.950;2023-04-07T12:54:08;97080.28;;;7.10;100.00
55032;BME280;40928;51.076;7.950;2023-04-07T12:56:34;97086.56;;;7.16;100.00
55032;BME280;40928;51.076;7.950;2023-04-07T12:58:59;97082.28;;;7.15;100.00
55032;BME280;40928;51.076;7.950;2023-04-07T13:01:25;97083.25;;;7.21;100.00
55032;BME280;40928;51.076;7.950;2023-04-07T13:03:51;97084.47;;;7.25;100.00
55032;BME280;40928;51.076;7.950;2023-04-07T13:06:16;97075.47;;;7.26;100.00
55032;BME280;40928;51.076;7.950;2023-04-07T13:08:43;97088.16;;;7.24;100.00
55032;BME280;40928;51.076;7.950;2023-04-07T13:11:09;97090.38;;;7.27;100.00
55032;BME280;40928;51.076;7.950;2023-04-07T13:13:34;97086.84;;;7.33;100.00
55032;BME280;40928;51.076;7.950;2023-04-07T13:16:00;97087.28;;;7.30;100.00
55032;BME280;40928;51.076;7.950;2023-04-07T13:18:26;97088.47;;;7.34;100.00
55032;BME280;40928;51.076;7.950;2023-04-07T13:20:52;97085.56;;;7.42;100.00
55032;BME280;40928;51.076;7.950;2023-04-07T13:23:18;97091.78;;;7.55;100.00
55032;BME280;40928;51.076;7.950;2023-04-07T13:25:43;97093.34;;;7.62;100.00
55032;BME280;40928;51.076;7.950;2023-04-07T13:28:08;97095.94;;;7.69;100.00
55032;BME280;40928;51.076;7.950;2023-04-07T13:30:34;97098.34;;;7.77;100.00